Terminal Aerodrome Forecast
Issued by NWS

Home | Current Version | Previous Version | Text Only | Print | Product List | Glossary On
Versions: 1 2 3 4 5 6 7 8 9 10 11 12 13 14 15 16 17 18 19
816
FTUS41 KCAR 250520
TAFPQI
TAF
KPQI 250520Z 2506/2606 36008KT P6SM SKC
     FM251200 10006KT P6SM BKN200
     FM252000 16008KT P6SM OVC050
     FM260100 16008KT 6SM -RA BR OVC020=

USA.gov is the U.S. government's official web portal to all federal, state and local government web resources and services.